createdAt,value
2022-09-23T00:00:53.729Z,80.44
2022-09-23T00:01:53.840Z,80.44
2022-09-23T00:02:53.740Z,80.44
2022-09-23T00:03:53.686Z,80.44
2022-09-23T00:04:53.712Z,80.34
2022-09-23T00:05:53.661Z,80.44
2022-09-23T00:06:53.682Z,80.44
2022-09-23T00:07:53.652Z,80.55
2022-09-23T00:08:53.625Z,80.55
2022-09-23T00:09:53.613Z,80.55
2022-09-23T00:10:53.601Z,80.44
2022-09-23T00:11:53.596Z,80.34
2022-09-23T00:12:53.580Z,80.24
2022-09-23T00:13:53.555Z,80.44
2022-09-23T00:14:53.559Z,80.24
2022-09-23T00:15:53.537Z,80.34
2022-09-23T00:16:53.605Z,80.44
2022-09-23T00:17:53.509Z,80.24
2022-09-23T00:18:53.500Z,80.24
2022-09-23T00:19:53.503Z,80.14
2022-09-23T00:20:53.470Z,80.04
2022-09-23T00:21:53.485Z,79.93
2022-09-23T00:22:53.447Z,79.83
2022-09-23T00:23:53.429Z,79.63
2022-09-23T00:24:53.405Z,79.43
2022-09-23T00:25:53.492Z,79.22
2022-09-23T00:26:53.406Z,79.12
2022-09-23T00:27:53.377Z,79.02
2022-09-23T00:28:53.374Z,79.12
2022-09-23T00:29:53.361Z,79.02
2022-09-23T00:30:53.412Z,78.95
2022-09-23T00:31:53.351Z,79.02
2022-09-23T00:32:53.313Z,78.85
2022-09-23T00:33:53.322Z,78.75
2022-09-23T00:34:53.295Z,78.85
2022-09-23T00:35:53.316Z,78.75
2022-09-23T00:36:53.294Z,78.64
2022-09-23T00:37:53.310Z,78.64
2022-09-23T00:38:53.242Z,78.75
2022-09-23T00:39:53.232Z,78.64
2022-09-23T00:40:53.222Z,78.54
2022-09-23T00:41:53.231Z,78.44
2022-09-23T00:42:53.213Z,78.44
2022-09-23T00:43:53.176Z,78.34
2022-09-23T00:44:53.171Z,78.54
2022-09-23T00:45:53.173Z,78.44
2022-09-23T00:46:53.166Z,78.34
2022-09-23T00:47:53.133Z,78.44
2022-09-23T00:48:53.125Z,78.44
2022-09-23T00:49:53.102Z,78.44
2022-09-23T00:50:53.091Z,78.44
2022-09-23T00:51:53.121Z,78.64
2022-09-23T00:52:53.092Z,78.44
2022-09-23T00:53:53.049Z,78.54
2022-09-23T00:54:53.044Z,78.44
2022-09-23T00:55:53.021Z,78.54
2022-09-23T00:56:53.030Z,78.44
2022-09-23T00:57:53.034Z,78.54
2022-09-23T00:58:53.000Z,78.23
2022-09-23T00:59:52.987Z,78.34
2022-09-23T01:00:52.984Z,78.44
2022-09-23T01:01:52.984Z,78.44
2022-09-23T01:02:53.013Z,78.54
2022-09-23T01:03:52.943Z,78.95
2022-09-23T01:04:52.930Z,78.85
2022-09-23T01:05:52.914Z,78.75
2022-09-23T01:06:52.913Z,78.85
2022-09-23T01:07:52.871Z,78.95
2022-09-23T01:08:52.875Z,78.85
2022-09-23T01:09:52.853Z,79.05
2022-09-23T01:10:52.848Z,78.85
2022-09-23T01:11:52.837Z,79.05
2022-09-23T01:12:52.813Z,78.95
2022-09-23T01:13:52.794Z,79.05
2022-09-23T01:14:52.785Z,79.25
2022-09-23T01:15:52.783Z,79.16
2022-09-23T01:16:52.885Z,79.05
2022-09-23T01:17:52.746Z,79.16
2022-09-23T01:18:52.778Z,79.19
2022-09-23T01:19:52.713Z,79.29
2022-09-23T01:20:52.742Z,79.29
2022-09-23T01:21:52.735Z,79.19
2022-09-23T01:22:52.686Z,79.19
2022-09-23T01:23:52.727Z,79.09
2022-09-23T01:24:52.658Z,79.09
2022-09-23T01:25:52.642Z,79.09
2022-09-23T01:26:52.701Z,79.09
2022-09-23T01:27:52.637Z,79.19
2022-09-23T01:28:52.623Z,79.29
2022-09-23T01:29:52.587Z,79.09
2022-09-23T01:30:52.632Z,79.19
2022-09-23T01:31:52.598Z,79.19
2022-09-23T01:32:52.603Z,79.19
2022-09-23T01:33:52.530Z,79.19
2022-09-23T01:34:52.558Z,79.29
2022-09-23T01:35:52.542Z,79.39
2022-09-23T01:36:52.517Z,79.60
2022-09-23T01:37:52.494Z,79.91
2022-09-23T01:38:52.477Z,79.80
2022-09-23T01:39:52.462Z,79.91
2022-09-23T01:40:52.503Z,79.60
2022-09-23T01:41:52.464Z,79.70
2022-09-23T01:42:52.423Z,79.70
2022-09-23T01:43:52.410Z,79.80
2022-09-23T01:44:52.409Z,80.01
2022-09-23T01:45:52.422Z,79.91
2022-09-23T01:46:52.396Z,80.01
2022-09-23T01:47:52.406Z,79.91
2022-09-23T01:48:52.346Z,80.01
2022-09-23T01:49:52.330Z,80.11
2022-09-23T01:50:52.315Z,80.21
2022-09-23T01:51:52.393Z,80.11
2022-09-23T01:52:52.326Z,80.32
2022-09-23T01:53:52.272Z,80.32
2022-09-23T01:54:52.268Z,80.35
2022-09-23T01:55:52.261Z,80.46
2022-09-23T01:56:52.261Z,80.46
2022-09-23T01:57:52.256Z,80.46
2022-09-23T01:58:52.219Z,80.46
2022-09-23T01:59:52.203Z,80.56
2022-09-23T02:00:52.224Z,80.56
2022-09-23T02:01:52.197Z,80.66
2022-09-23T02:02:52.226Z,80.76
2022-09-23T02:03:52.141Z,80.76
2022-09-23T02:04:52.162Z,80.76
2022-09-23T02:05:52.119Z,81.07
2022-09-23T02:06:52.139Z,81.07
2022-09-23T02:07:52.107Z,81.07
2022-09-23T02:08:52.082Z,81.27
2022-09-23T02:09:52.065Z,81.38
2022-09-23T02:10:52.054Z,81.48
2022-09-23T02:11:52.073Z,81.38
2022-09-23T02:12:52.056Z,81.48
2022-09-23T02:13:52.022Z,81.62
2022-09-23T02:14:52.005Z,81.68
2022-09-23T02:15:52.040Z,81.68
2022-09-23T02:16:52.275Z,81.72
2022-09-23T02:17:51.967Z,81.82
2022-09-23T02:18:51.963Z,81.82
2022-09-23T02:19:51.959Z,82.03
2022-09-23T02:20:51.924Z,81.93
2022-09-23T02:21:51.941Z,81.93
2022-09-23T02:22:51.900Z,82.03
2022-09-23T02:23:51.894Z,81.93
2022-09-23T02:24:51.876Z,81.93
2022-09-23T02:25:51.867Z,81.93
2022-09-23T02:26:51.872Z,82.03
2022-09-23T02:27:51.840Z,82.03
2022-09-23T02:28:51.834Z,82.03
2022-09-23T02:29:51.827Z,82.13
2022-09-23T02:30:51.842Z,82.23
2022-09-23T02:31:51.834Z,82.23
2022-09-23T02:32:51.836Z,82.43
2022-09-23T02:33:51.786Z,82.54
2022-09-23T02:34:51.744Z,82.64
2022-09-23T02:35:51.781Z,82.64
2022-09-23T02:36:51.748Z,82.75
2022-09-23T02:37:51.703Z,82.64
2022-09-23T02:38:51.687Z,82.75
2022-09-23T02:39:51.707Z,82.64
2022-09-23T02:40:51.704Z,82.54
2022-09-23T02:41:51.705Z,82.43
2022-09-23T02:42:51.641Z,82.43
2022-09-23T02:43:51.629Z,82.34
2022-09-23T02:44:51.619Z,82.34
2022-09-23T02:45:51.665Z,82.43
2022-09-23T02:46:51.601Z,82.43
2022-09-23T02:47:51.572Z,82.43
2022-09-23T02:48:51.568Z,82.34
2022-09-23T02:49:51.578Z,82.34
2022-09-23T02:50:51.545Z,82.34
2022-09-23T02:51:51.546Z,82.43
2022-09-23T02:52:51.500Z,82.43
2022-09-23T02:53:51.499Z,82.54
2022-09-23T02:54:51.476Z,82.64
2022-09-23T02:55:51.473Z,82.54
2022-09-23T02:56:51.494Z,82.34
2022-09-23T02:57:51.474Z,82.34
2022-09-23T02:58:51.426Z,82.43
2022-09-23T02:59:51.433Z,82.34
2022-09-23T03:00:51.478Z,82.34
2022-09-23T03:01:51.429Z,82.43
2022-09-23T03:02:51.377Z,82.43
2022-09-23T03:03:51.365Z,82.64
2022-09-23T03:04:51.391Z,82.84
2022-09-23T03:05:51.340Z,82.95
2022-09-23T03:06:51.336Z,83.05
2022-09-23T03:07:51.314Z,83.09
2022-09-23T03:08:51.294Z,82.89
2022-09-23T03:09:51.280Z,82.89
2022-09-23T03:10:51.290Z,82.89
2022-09-23T03:11:51.278Z,82.89
2022-09-23T03:12:51.245Z,82.98
2022-09-23T03:13:51.237Z,82.68
2022-09-23T03:14:51.218Z,82.89
2022-09-23T03:15:51.233Z,82.98
2022-09-23T03:16:51.239Z,82.78
2022-09-23T03:17:51.189Z,82.78
2022-09-23T03:18:51.167Z,82.68
2022-09-23T03:19:51.194Z,82.68
2022-09-23T03:20:51.136Z,82.78
2022-09-23T03:21:51.159Z,82.89
2022-09-23T03:22:51.100Z,82.89
2022-09-23T03:23:51.111Z,82.68
2022-09-23T03:24:53.995Z,82.57
2022-09-23T03:25:51.082Z,82.68
2022-09-23T03:26:51.095Z,82.68
2022-09-23T03:27:51.068Z,82.68
2022-09-23T03:28:51.032Z,82.78
2022-09-23T03:29:51.031Z,82.68
2022-09-23T03:30:51.036Z,82.78
2022-09-23T03:31:51.047Z,82.68
2022-09-23T03:32:50.992Z,82.78
2022-09-23T03:33:50.986Z,82.98
2022-09-23T03:34:51.002Z,82.98
2022-09-23T03:35:50.976Z,82.98
2022-09-23T03:36:50.966Z,83.09
2022-09-23T03:37:50.943Z,82.98
2022-09-23T03:38:50.913Z,83.09
2022-09-23T03:39:50.907Z,83.09
2022-09-23T03:40:51.091Z,83.19
2022-09-23T03:41:50.966Z,83.19
2022-09-23T03:42:50.857Z,83.29
2022-09-23T03:43:50.884Z,83.29
2022-09-23T03:44:50.848Z,83.39
2022-09-23T03:45:50.892Z,83.50
2022-09-23T03:46:50.818Z,83.60
2022-09-23T03:47:50.802Z,83.70
2022-09-23T03:48:50.799Z,84.01
2022-09-23T03:49:50.781Z,84.22
2022-09-23T03:50:50.776Z,84.01
2022-09-23T03:51:50.744Z,84.15
2022-09-23T03:52:50.735Z,84.36
2022-09-23T03:53:50.717Z,84.36
2022-09-23T03:54:50.702Z,84.36
2022-09-23T03:55:50.714Z,84.46
2022-09-23T03:56:50.684Z,84.46
2022-09-23T03:57:50.672Z,84.25
2022-09-23T03:58:50.688Z,84.36
2022-09-23T04:03:30.400Z,84.46
2022-09-23T04:04:31.411Z,84.46
2022-09-23T04:05:31.377Z,84.46
2022-09-23T04:06:31.380Z,84.36
2022-09-23T04:07:31.340Z,84.56
2022-09-23T04:08:31.330Z,84.56
2022-09-23T04:09:31.319Z,84.66
2022-09-23T04:10:31.328Z,84.66
2022-09-23T04:11:31.319Z,84.66
2022-09-23T04:12:31.281Z,84.77
2022-09-23T04:13:31.297Z,84.97
2022-09-23T04:14:31.265Z,84.97
2022-09-23T04:15:31.248Z,84.97
2022-09-23T04:16:31.658Z,85.07
2022-09-23T04:17:31.220Z,85.07
2022-09-23T04:18:31.223Z,85.28
2022-09-23T04:19:31.188Z,85.38
2022-09-23T04:20:31.185Z,85.48
2022-09-23T04:21:31.181Z,85.58
2022-09-23T04:22:31.165Z,85.48
2022-09-23T04:23:31.138Z,85.38
2022-09-23T04:24:31.138Z,85.38
2022-09-23T04:25:31.132Z,85.38
2022-09-23T04:26:31.130Z,85.38
2022-09-23T04:27:35.481Z,85.38
2022-09-23T04:29:52.677Z,85.48
2022-09-23T04:30:53.668Z,85.48
2022-09-23T04:31:54.474Z,85.58
2022-09-23T04:32:53.652Z,85.69
2022-09-23T04:33:53.632Z,85.89
2022-09-23T04:34:53.613Z,86.10
2022-09-23T04:35:53.598Z,86.10
2022-09-23T04:36:53.610Z,86.30
2022-09-23T04:37:53.600Z,86.40
2022-09-23T04:38:53.578Z,86.40
2022-09-23T04:39:53.561Z,86.51
2022-09-23T04:40:53.613Z,86.40
2022-09-23T04:41:53.546Z,86.40
2022-09-23T04:42:53.512Z,86.51
2022-09-23T04:49:59.970Z,86.34
2022-09-23T04:50:58.647Z,86.34
2022-09-23T04:51:58.658Z,86.24
2022-09-23T04:52:58.619Z,86.14
2022-09-23T04:53:58.664Z,86.04
2022-09-23T04:54:58.648Z,85.83
2022-09-23T04:55:58.612Z,85.72
2022-09-23T04:56:58.585Z,85.42
2022-09-23T04:57:58.638Z,85.31
2022-09-23T04:58:58.558Z,85.11
2022-09-23T04:59:58.565Z,84.91
2022-09-23T05:01:02.966Z,84.80
2022-09-23T05:01:58.583Z,84.60
2022-09-23T05:02:58.490Z,84.60
2022-09-23T05:03:58.492Z,84.50
2022-09-23T05:04:58.469Z,84.39
2022-09-23T05:05:58.452Z,84.50
2022-09-23T05:07:02.925Z,84.60
2022-09-23T05:07:58.435Z,84.70
2022-09-23T05:08:58.411Z,84.70
2022-09-23T05:09:58.408Z,84.70
2022-09-23T05:10:58.387Z,84.80
2022-09-23T05:11:58.398Z,84.80
2022-09-23T05:12:58.356Z,84.60
2022-09-23T05:13:58.350Z,84.50
2022-09-23T05:14:58.354Z,84.50
2022-09-23T05:15:58.407Z,84.50
2022-09-23T05:16:58.333Z,84.70
2022-09-23T05:17:58.298Z,84.91
2022-09-23T05:18:58.284Z,84.80
2022-09-23T05:19:58.274Z,84.70
2022-09-23T05:20:58.362Z,84.60
2022-09-23T05:21:58.299Z,84.60
2022-09-23T05:22:58.229Z,84.80
2022-09-23T05:23:58.241Z,84.91
2022-09-23T05:24:58.209Z,84.91
2022-09-23T05:25:58.203Z,84.91
2022-09-23T05:26:58.213Z,84.91
2022-09-23T05:27:58.176Z,85.01
2022-09-23T05:28:58.150Z,84.80
2022-09-23T05:29:58.184Z,84.80
2022-09-23T05:30:58.186Z,84.80
2022-09-23T05:31:58.247Z,84.70
2022-09-23T05:32:58.111Z,84.80
2022-09-23T05:33:58.100Z,85.01
2022-09-23T05:34:58.094Z,85.11
2022-09-23T05:39:57.275Z,85.22
2022-09-23T05:40:58.228Z,85.22
2022-09-23T05:41:58.213Z,85.42
2022-09-23T05:42:58.182Z,85.42
2022-09-23T05:43:58.199Z,85.42
2022-09-23T05:44:58.153Z,85.52
2022-09-23T05:45:58.146Z,85.63
2022-09-23T05:46:58.203Z,85.42
2022-09-23T05:47:58.125Z,85.52
2022-09-23T05:49:06.764Z,85.42
2022-09-23T05:50:00.478Z,85.31
2022-09-23T05:50:58.093Z,85.11
2022-09-23T06:00:00.285Z,85.01
2022-09-23T06:01:01.245Z,85.01
2022-09-23T06:02:01.323Z,84.91
2022-09-23T06:03:01.265Z,84.91
2022-09-23T06:04:01.212Z,84.70
2022-09-23T06:05:01.196Z,84.56
2022-09-23T06:06:01.177Z,84.56
2022-09-23T06:07:03.537Z,84.56
2022-09-23T06:08:01.154Z,84.56
2022-09-23T06:09:01.158Z,84.15
2022-09-23T06:10:01.156Z,84.05
2022-09-23T06:11:01.123Z,84.05
2022-09-23T06:12:01.133Z,83.95
2022-09-23T06:13:01.104Z,83.95
2022-09-23T06:14:01.253Z,84.05
2022-09-23T06:15:01.081Z,83.84
2022-09-23T06:16:01.112Z,83.64
2022-09-23T06:17:01.062Z,83.64
2022-09-23T06:18:01.018Z,83.64
2022-09-23T06:19:05.252Z,83.84
2022-09-23T06:20:01.000Z,83.84
2022-09-23T06:21:00.978Z,83.64
2022-09-23T06:22:00.972Z,83.70
2022-09-23T06:23:00.961Z,83.39
2022-09-23T06:24:00.941Z,83.70
2022-09-23T06:25:00.934Z,83.39
2022-09-23T06:26:00.925Z,83.46
2022-09-23T06:27:00.974Z,83.46
2022-09-23T06:28:00.889Z,83.56
2022-09-23T06:29:00.886Z,83.36
2022-09-23T06:30:00.865Z,83.36
2022-09-23T06:31:00.932Z,83.36
2022-09-23T06:32:00.920Z,82.75
2022-09-23T06:33:00.839Z,82.75
2022-09-23T06:34:12.423Z,82.09
2022-09-23T06:40:02.164Z,81.88
2022-09-23T06:41:03.171Z,81.74
2022-09-23T06:42:03.136Z,81.34
2022-09-23T06:43:03.139Z,80.93
2022-09-23T06:44:03.175Z,80.42
2022-09-23T06:45:03.077Z,80.21
2022-09-23T06:46:03.066Z,80.62
2022-09-23T06:47:03.106Z,80.28
2022-09-23T06:48:03.047Z,79.87
2022-09-23T06:49:03.059Z,79.66
2022-09-23T06:50:03.015Z,79.57
2022-09-23T06:51:03.000Z,79.77
2022-09-23T06:52:03.003Z,79.36
2022-09-23T06:53:02.983Z,79.05
2022-09-23T06:54:03.014Z,78.81
2022-09-23T06:59:57.096Z,76.56
2022-09-23T07:00:58.083Z,76.66
2022-09-23T07:01:58.202Z,77.07
2022-09-23T07:02:58.058Z,76.25
2022-09-23T07:03:58.029Z,75.95
2022-09-23T07:04:58.048Z,75.81
2022-09-23T07:05:58.007Z,75.60
2022-09-23T07:06:58.001Z,76.42
2022-09-23T07:07:57.974Z,75.71
2022-09-23T07:08:57.955Z,74.79
2022-09-23T07:09:57.957Z,74.99
2022-09-23T07:10:57.929Z,75.10
2022-09-23T07:11:57.963Z,74.38
2022-09-23T07:12:57.905Z,73.88
2022-09-23T07:13:57.904Z,74.18
2022-09-23T07:14:57.880Z,74.65
2022-09-23T07:15:57.885Z,74.35
2022-09-23T07:16:57.881Z,74.65
2022-09-23T07:17:57.846Z,75.74
2022-09-23T07:18:57.824Z,74.72
2022-09-23T07:19:57.821Z,74.11
2022-09-23T07:20:57.814Z,73.36
2022-09-23T07:21:57.849Z,72.04
2022-09-23T07:22:57.781Z,72.14
2022-09-23T07:23:57.770Z,72.08
2022-09-23T07:24:57.745Z,72.69
2022-09-23T07:25:57.742Z,72.78
2022-09-23T07:26:57.744Z,72.75
2022-09-23T07:27:57.709Z,72.34
2022-09-23T07:28:57.692Z,71.64
2022-09-23T07:29:57.733Z,71.23
2022-09-23T07:31:00.668Z,71.43
2022-09-23T07:32:10.613Z,71.80
2022-09-23T07:32:57.678Z,71.30
2022-09-23T07:33:57.635Z,70.99
2022-09-23T07:39:56.807Z,70.65
2022-09-23T07:40:57.786Z,70.95
2022-09-23T07:41:57.774Z,70.75
2022-09-23T07:42:57.830Z,70.55
2022-09-23T07:43:57.734Z,70.45
2022-09-23T07:44:57.721Z,70.45
2022-09-23T07:45:57.774Z,70.65
2022-09-23T07:46:57.723Z,70.95
2022-09-23T07:47:57.693Z,70.75
2022-09-23T07:48:57.668Z,70.95
2022-09-23T07:49:57.648Z,70.31
2022-09-23T07:50:57.639Z,70.72
2022-09-23T07:51:57.651Z,70.31
2022-09-23T07:52:57.625Z,70.01
2022-09-23T07:53:57.600Z,70.10
2022-09-23T08:00:01.768Z,69.90
2022-09-23T08:01:02.718Z,69.90
2022-09-23T08:02:02.805Z,70.62
2022-09-23T08:03:02.752Z,70.41
2022-09-23T08:04:02.682Z,70.41
2022-09-23T08:05:02.646Z,70.31
2022-09-23T08:06:02.660Z,70.41
2022-09-23T08:07:02.616Z,71.02
2022-09-23T08:08:02.634Z,70.38
2022-09-23T08:09:02.594Z,70.58
2022-09-23T08:10:02.601Z,71.09
2022-09-23T08:11:02.621Z,71.57
2022-09-23T08:12:02.556Z,70.35
2022-09-23T08:13:02.539Z,71.26
2022-09-23T08:14:02.617Z,70.04
2022-09-23T08:15:02.521Z,70.25
2022-09-23T08:16:02.604Z,70.14
2022-09-23T08:17:02.487Z,70.96
2022-09-23T08:18:02.497Z,70.82
2022-09-23T08:19:02.606Z,71.23
2022-09-23T08:20:02.459Z,70.72
2022-09-23T08:21:02.459Z,69.50
2022-09-23T08:22:02.460Z,69.20
2022-09-23T08:23:02.418Z,69.60
2022-09-23T08:24:02.488Z,68.99
2022-09-23T08:25:02.404Z,69.50
2022-09-23T08:26:02.391Z,68.96
2022-09-23T08:27:02.365Z,68.52
2022-09-23T08:28:02.353Z,67.71
2022-09-23T08:29:02.355Z,67.30
2022-09-23T08:30:02.329Z,67.20
2022-09-23T08:31:02.371Z,66.97
2022-09-23T08:32:02.309Z,66.66
2022-09-23T08:33:02.310Z,66.46
2022-09-23T08:34:02.380Z,66.46
2022-09-23T08:40:01.478Z,66.69
2022-09-23T08:41:02.438Z,66.90
2022-09-23T08:42:02.420Z,66.80
2022-09-23T08:43:02.399Z,66.56
2022-09-23T08:44:02.418Z,66.46
2022-09-23T08:45:02.379Z,66.97
2022-09-23T08:46:02.430Z,66.30
2022-09-23T08:47:02.353Z,65.39
2022-09-23T08:48:02.323Z,65.36
2022-09-23T08:49:02.319Z,64.85
2022-09-23T08:50:02.302Z,64.64
2022-09-23T08:51:02.315Z,64.11
2022-09-23T08:52:02.270Z,63.81
2022-09-23T08:53:02.265Z,63.57
2022-09-23T08:54:02.274Z,63.07
2022-09-23T08:55:02.255Z,62.90
2022-09-23T08:56:02.246Z,62.74
2022-09-23T08:57:02.212Z,61.43
2022-09-23T08:58:24.081Z,62.01
2022-09-23T08:59:02.197Z,60.36
2022-09-23T09:00:02.170Z,61.17
2022-09-23T09:01:02.193Z,61.95
2022-09-23T09:02:02.163Z,62.32
2022-09-23T09:03:02.148Z,60.08
2022-09-23T09:04:02.115Z,58.59
2022-09-23T09:05:02.121Z,59.02
2022-09-23T09:06:02.095Z,59.69
2022-09-23T09:07:24.469Z,60.55
2022-09-23T09:08:02.075Z,61.99
2022-09-23T09:09:02.050Z,62.30
2022-09-23T09:10:02.036Z,62.10
2022-09-23T09:11:02.028Z,63.21
2022-09-23T09:12:02.029Z,63.21
2022-09-23T09:13:02.004Z,63.61
2022-09-23T09:14:01.980Z,63.51
2022-09-23T09:15:02.025Z,63.21
2022-09-23T09:16:02.094Z,62.23
2022-09-23T09:17:02.054Z,63.37
2022-09-23T09:18:01.941Z,65.02
2022-09-23T09:19:02.031Z,64.72
2022-09-23T09:20:01.902Z,64.61
2022-09-23T09:21:01.917Z,64.44
2022-09-23T09:22:01.877Z,65.15
2022-09-23T09:23:01.873Z,65.02
2022-09-23T09:24:01.931Z,64.31
2022-09-23T09:25:01.860Z,65.32
2022-09-23T09:26:01.848Z,65.59
2022-09-23T09:27:01.818Z,64.18
2022-09-23T09:28:01.812Z,63.87
2022-09-23T09:29:23.437Z,64.55
2022-09-23T09:30:01.797Z,64.12
2022-09-23T09:31:01.888Z,63.41
2022-09-23T09:32:01.746Z,63.41
2022-09-23T09:33:01.742Z,63.21
2022-09-23T09:34:01.721Z,61.99
2022-09-23T09:39:53.017Z,63.31
2022-09-23T09:40:54.040Z,63.10
2022-09-23T09:41:53.965Z,63.41
2022-09-23T09:42:53.947Z,63.71
2022-09-23T09:43:53.966Z,62.81
2022-09-23T09:44:54.083Z,62.63
2022-09-23T09:45:57.782Z,63.31
2022-09-23T09:46:53.947Z,62.37
2022-09-23T09:47:53.891Z,61.33
2022-09-23T09:48:53.893Z,60.39
2022-09-23T09:49:53.847Z,60.26
2022-09-23T09:50:53.864Z,60.03
2022-09-23T09:51:53.845Z,58.89
2022-09-23T09:52:53.759Z,59.02
2022-09-23T09:53:53.790Z,58.92
2022-09-23T09:54:53.731Z,60.26
2022-09-23T09:55:53.735Z,60.16
2022-09-23T09:56:53.729Z,60.16
2022-09-23T09:57:53.711Z,60.06
2022-09-23T09:58:53.707Z,60.16
2022-09-23T09:59:53.674Z,60.74
2022-09-23T10:00:53.685Z,60.33
2022-09-23T10:01:53.696Z,60.33
2022-09-23T10:02:53.627Z,61.14
2022-09-23T10:03:56.893Z,59.42
2022-09-23T10:04:53.678Z,58.92
2022-09-23T10:05:53.610Z,59.30
2022-09-23T10:06:53.604Z,58.59
2022-09-23T10:07:53.573Z,57.86
2022-09-23T10:08:53.546Z,56.82
2022-09-23T10:09:55.779Z,56.80
2022-09-23T10:10:53.523Z,57.60
2022-09-23T10:11:53.550Z,57.28
2022-09-23T10:12:53.495Z,56.67
2022-09-23T10:13:53.485Z,56.64
2022-09-23T10:14:53.491Z,55.94
2022-09-23T10:15:53.459Z,55.96
2022-09-23T10:16:53.553Z,56.09
2022-09-23T10:17:53.459Z,56.42
2022-09-23T10:18:53.423Z,57.12
2022-09-23T10:19:53.408Z,57.23
2022-09-23T10:20:53.387Z,57.12
2022-09-23T10:21:53.406Z,57.32
2022-09-23T10:22:53.395Z,56.60
2022-09-23T10:23:53.366Z,56.84
2022-09-23T10:24:53.344Z,55.91
2022-09-23T10:25:53.334Z,58.12
2022-09-23T10:26:53.342Z,56.51
2022-09-23T10:27:53.299Z,58.40
2022-09-23T10:28:53.287Z,58.00
2022-09-23T10:29:53.285Z,57.29
2022-09-23T10:30:53.312Z,54.58
2022-09-23T10:31:53.539Z,54.83
2022-09-23T10:32:53.238Z,56.07
2022-09-23T10:33:53.229Z,56.29
2022-09-23T10:34:53.226Z,56.60
2022-09-23T10:39:52.380Z,56.67
2022-09-23T10:40:54.089Z,57.07
2022-09-23T10:41:53.347Z,56.64
2022-09-23T10:42:53.317Z,55.87
2022-09-23T10:43:53.310Z,56.07
2022-09-23T10:44:53.292Z,56.74
2022-09-23T10:45:53.359Z,55.54
2022-09-23T10:46:53.268Z,55.21
2022-09-23T10:47:53.262Z,55.28
2022-09-23T10:48:53.243Z,53.88
2022-09-23T10:49:53.237Z,53.47
2022-09-23T10:50:53.247Z,53.57
2022-09-23T10:51:53.212Z,54.38
2022-09-23T10:52:53.189Z,53.75
2022-09-23T10:53:53.184Z,53.32
2022-09-23T10:54:53.184Z,52.59
2022-09-23T10:55:53.174Z,51.79
2022-09-23T10:56:53.189Z,52.49
2022-09-23T10:57:53.129Z,52.07
2022-09-23T10:58:53.113Z,52.64
2022-09-23T10:59:53.122Z,51.92
2022-09-23T11:00:53.110Z,51.89
2022-09-23T11:01:53.169Z,51.17
2022-09-23T11:02:53.064Z,49.46
2022-09-23T11:03:53.058Z,48.96
2022-09-23T11:04:53.059Z,50.99
2022-09-23T11:05:53.043Z,51.49
2022-09-23T11:06:53.030Z,50.09
2022-09-23T11:07:53.005Z,48.21
2022-09-23T11:08:53.004Z,49.13
2022-09-23T11:09:52.981Z,49.84
2022-09-23T11:10:52.988Z,52.12
2022-09-23T11:11:52.993Z,52.32
2022-09-23T11:12:52.995Z,49.91
2022-09-23T11:13:54.700Z,49.74
2022-09-23T11:14:52.910Z,50.16
2022-09-23T11:15:52.930Z,50.99
2022-09-23T11:16:52.962Z,51.59
2022-09-23T11:17:52.908Z,51.56
2022-09-23T11:18:52.862Z,52.67
2022-09-23T11:19:52.860Z,50.84
2022-09-23T11:20:52.863Z,50.24
2022-09-23T11:21:52.839Z,49.96
2022-09-23T11:22:52.880Z,51.04
2022-09-23T11:23:52.848Z,50.16
2022-09-23T11:24:52.792Z,51.56
2022-09-23T11:25:52.815Z,51.29
2022-09-23T11:26:52.759Z,51.19
2022-09-23T11:27:52.766Z,51.29
2022-09-23T11:28:52.738Z,51.49
2022-09-23T11:29:52.739Z,51.26
2022-09-23T11:30:52.821Z,51.26
2022-09-23T11:31:57.390Z,51.44
2022-09-23T11:32:52.738Z,52.32
2022-09-23T11:33:52.682Z,50.42
2022-09-23T11:34:54.885Z,50.36
2022-09-23T11:35:52.673Z,51.59
2022-09-23T11:36:52.632Z,52.01
2022-09-23T11:37:52.627Z,52.64
2022-09-23T11:38:52.637Z,53.17
2022-09-23T11:39:52.601Z,53.97
2022-09-23T11:40:52.665Z,53.80
2022-09-23T11:41:52.578Z,55.33
2022-09-23T11:42:52.555Z,54.83
2022-09-23T11:43:52.548Z,54.43
2022-09-23T11:44:52.545Z,55.13
2022-09-23T11:45:52.621Z,52.42
2022-09-23T11:46:52.535Z,54.13
2022-09-23T11:47:52.501Z,54.13
2022-09-23T11:48:52.476Z,53.70
2022-09-23T11:49:52.476Z,53.70
2022-09-23T11:59:52.735Z,52.59
2022-09-23T12:00:32.703Z,52.80
2022-09-23T12:01:37.575Z,54.20
2022-09-23T12:02:32.771Z,53.40
2022-09-23T12:03:43.398Z,53.60
2022-09-23T12:04:32.756Z,53.40
2022-09-23T12:05:32.828Z,54.20
2022-09-23T12:06:32.631Z,53.70
2022-09-23T12:07:32.628Z,53.70
2022-09-23T12:08:32.597Z,53.22
2022-09-23T12:09:56.822Z,53.40
2022-09-23T12:10:32.604Z,52.82
2022-09-23T12:11:32.572Z,53.63
2022-09-23T12:12:32.547Z,52.80
2022-09-23T12:13:32.527Z,54.10
2022-09-23T12:14:32.565Z,53.00
2022-09-23T12:15:32.541Z,53.20
2022-09-23T12:16:32.629Z,53.09
2022-09-23T12:17:32.475Z,52.89
2022-09-23T12:18:32.466Z,53.37
2022-09-23T12:19:32.455Z,52.77
2022-09-23T12:20:32.476Z,52.57
2022-09-23T12:21:49.714Z,52.06
2022-09-23T12:22:32.424Z,52.67
2022-09-23T12:23:32.415Z,53.77
2022-09-23T12:24:32.390Z,54.68
2022-09-23T12:25:32.401Z,53.65
2022-09-23T12:26:32.365Z,52.74
2022-09-23T12:27:32.366Z,52.17
2022-09-23T12:28:32.335Z,51.56
2022-09-23T12:29:32.359Z,52.47
2022-09-23T12:30:32.408Z,53.27
2022-09-23T12:31:33.880Z,52.97
2022-09-23T12:32:32.308Z,52.77
2022-09-23T12:33:32.297Z,53.57
2022-09-23T12:34:32.266Z,53.07
2022-09-23T12:35:32.275Z,52.64
2022-09-23T12:36:32.247Z,51.44
2022-09-23T12:37:32.234Z,53.85
2022-09-23T12:38:32.270Z,52.62
2022-09-23T12:39:32.250Z,51.11
2022-09-23T12:40:32.244Z,50.71
2022-09-23T12:41:32.185Z,51.84
2022-09-23T12:42:32.158Z,52.55
2022-09-23T12:43:32.176Z,52.24
2022-09-23T12:44:32.146Z,51.84
2022-09-23T12:45:32.283Z,51.54
2022-09-23T12:46:32.110Z,52.14
2022-09-23T12:47:32.118Z,52.57
2022-09-23T12:48:32.091Z,52.57
2022-09-23T12:49:32.072Z,52.39
2022-09-23T12:50:32.072Z,55.11
2022-09-23T12:51:32.056Z,53.70
2022-09-23T12:52:32.038Z,56.62
2022-09-23T12:53:32.019Z,54.28
2022-09-23T12:54:32.012Z,53.60
2022-09-23T12:55:32.014Z,54.20
2022-09-23T12:56:31.979Z,53.77
2022-09-23T12:57:31.971Z,53.77
2022-09-23T12:58:31.966Z,56.49
2022-09-23T12:59:31.944Z,53.88
2022-09-23T13:00:34.284Z,52.67
2022-09-23T13:01:32.030Z,52.87
2022-09-23T13:02:31.963Z,54.17
2022-09-23T13:03:31.893Z,53.47
2022-09-23T13:04:31.898Z,53.27
2022-09-23T13:05:31.887Z,53.17
2022-09-23T13:06:31.850Z,53.27
2022-09-23T13:07:31.882Z,56.11
2022-09-23T13:08:31.850Z,54.30
2022-09-23T13:09:31.824Z,54.10
2022-09-23T13:10:31.825Z,54.00
2022-09-23T13:11:31.860Z,53.90
2022-09-23T13:12:31.778Z,53.70
2022-09-23T13:13:31.801Z,54.50
2022-09-23T13:14:31.773Z,56.69
2022-09-23T13:15:31.749Z,53.70
2022-09-23T13:16:31.801Z,52.89
2022-09-23T13:17:31.711Z,53.70
2022-09-23T13:18:31.757Z,54.40
2022-09-23T13:19:35.332Z,54.10
2022-09-23T13:20:31.717Z,54.50
2022-09-23T13:21:31.665Z,53.30
2022-09-23T13:22:31.641Z,54.17
2022-09-23T13:23:31.653Z,53.37
2022-09-23T13:24:31.613Z,55.41
2022-09-23T13:25:31.639Z,55.51
2022-09-23T13:26:31.612Z,54.91
2022-09-23T13:27:31.580Z,54.91
2022-09-23T13:28:31.622Z,55.81
2022-09-23T13:29:31.572Z,55.94
2022-09-23T13:30:31.560Z,55.43
2022-09-23T13:31:31.575Z,56.92
2022-09-23T13:32:31.535Z,57.24
2022-09-23T13:33:31.510Z,57.85
2022-09-23T13:34:31.515Z,57.15
2022-09-23T13:35:31.489Z,57.85
2022-09-23T13:36:31.480Z,58.75
2022-09-23T13:37:31.475Z,56.95
2022-09-23T13:38:31.433Z,56.54
2022-09-23T13:39:31.454Z,57.24
2022-09-23T13:40:31.470Z,56.37
2022-09-23T13:41:31.399Z,55.76
2022-09-23T13:42:31.401Z,57.57
2022-09-23T13:43:31.400Z,58.68
2022-09-23T13:44:31.355Z,57.88
2022-09-23T13:45:31.414Z,55.56
2022-09-23T13:46:31.330Z,55.56
2022-09-23T13:47:31.429Z,56.47
2022-09-23T13:48:31.307Z,57.48
2022-09-23T13:49:31.321Z,57.20
2022-09-23T13:50:34.819Z,56.40
2022-09-23T13:51:31.307Z,56.49
2022-09-23T13:52:31.261Z,57.50
2022-09-23T13:53:31.256Z,56.70
2022-09-23T13:54:31.404Z,57.00
2022-09-23T13:55:31.227Z,56.80
2022-09-23T13:56:31.279Z,58.41
2022-09-23T13:57:31.193Z,57.30
2022-09-23T13:58:31.179Z,57.00